sensor_id;sensor_type;location;lat;lon;timestamp;P1;durP1;ratioP1;P2;durP2;ratioP2
2646;SDS011;1333;50.958;6.770;2024-01-25T00:00:05;20.73;;;5.17;;
2646;SDS011;1333;50.958;6.770;2024-01-25T00:02:31;16.43;;;4.80;;
2646;SDS011;1333;50.958;6.770;2024-01-25T00:04:58;23.07;;;6.27;;
2646;SDS011;1333;50.958;6.770;2024-01-25T00:07:24;16.47;;;4.00;;
2646;SDS011;1333;50.958;6.770;2024-01-25T00:09:50;20.70;;;4.90;;
2646;SDS011;1333;50.958;6.770;2024-01-25T00:12:15;25.17;;;4.70;;
2646;SDS011;1333;50.958;6.770;2024-01-25T00:14:41;21.60;;;5.93;;
2646;SDS011;1333;50.958;6.770;2024-01-25T00:17:06;21.93;;;5.23;;
2646;SDS011;1333;50.958;6.770;2024-01-25T00:19:33;12.37;;;3.37;;
2646;SDS011;1333;50.958;6.770;2024-01-25T00:21:59;26.50;;;6.43;;
2646;SDS011;1333;50.958;6.770;2024-01-25T00:24:25;18.67;;;6.50;;
2646;SDS011;1333;50.958;6.770;2024-01-25T00:26:51;18.67;;;4.47;;
2646;SDS011;1333;50.958;6.770;2024-01-25T00:29:16;16.80;;;5.03;;
2646;SDS011;1333;50.958;6.770;2024-01-25T00:31:42;29.43;;;4.90;;
2646;SDS011;1333;50.958;6.770;2024-01-25T00:34:07;15.60;;;3.80;;
2646;SDS011;1333;50.958;6.770;2024-01-25T00:36:33;17.30;;;4.17;;
2646;SDS011;1333;50.958;6.770;2024-01-25T00:38:59;24.40;;;4.57;;
2646;SDS011;1333;50.958;6.770;2024-01-25T00:41:25;10.47;;;3.80;;
2646;SDS011;1333;50.958;6.770;2024-01-25T00:43:50;25.50;;;4.50;;
2646;SDS011;1333;50.958;6.770;2024-01-25T00:46:16;21.47;;;4.80;;
2646;SDS011;1333;50.958;6.770;2024-01-25T00:48:42;19.27;;;4.70;;
2646;SDS011;1333;50.958;6.770;2024-01-25T00:51:08;13.30;;;4.80;;
2646;SDS011;1333;50.958;6.770;2024-01-25T00:53:40;27.90;;;5.20;;
2646;SDS011;1333;50.958;6.770;2024-01-25T00:56:05;13.80;;;4.47;;
2646;SDS011;1333;50.958;6.770;2024-01-25T00:58:31;14.20;;;4.50;;
2646;SDS011;1333;50.958;6.770;2024-01-25T01:00:57;17.37;;;4.30;;
2646;SDS011;1333;50.958;6.770;2024-01-25T01:03:23;17.63;;;4.87;;
2646;SDS011;1333;50.958;6.770;2024-01-25T01:05:49;18.33;;;5.07;;
2646;SDS011;1333;50.958;6.770;2024-01-25T01:08:14;22.17;;;4.90;;
2646;SDS011;1333;50.958;6.770;2024-01-25T01:10:40;28.13;;;5.50;;
2646;SDS011;1333;50.958;6.770;2024-01-25T01:13:06;19.90;;;4.47;;
2646;SDS011;1333;50.958;6.770;2024-01-25T01:15:31;19.70;;;5.93;;
2646;SDS011;1333;50.958;6.770;2024-01-25T01:17:57;16.87;;;3.53;;
2646;SDS011;1333;50.958;6.770;2024-01-25T01:20:23;17.90;;;5.13;;
2646;SDS011;1333;50.958;6.770;2024-01-25T01:22:48;19.40;;;3.73;;
2646;SDS011;1333;50.958;6.770;2024-01-25T01:25:14;18.23;;;4.27;;
2646;SDS011;1333;50.958;6.770;2024-01-25T01:27:39;22.00;;;5.50;;
2646;SDS011;1333;50.958;6.770;2024-01-25T01:30:05;36.07;;;5.37;;
2646;SDS011;1333;50.958;6.770;2024-01-25T01:32:33;19.80;;;4.37;;
2646;SDS011;1333;50.958;6.770;2024-01-25T01:34:58;33.00;;;5.37;;
2646;SDS011;1333;50.958;6.770;2024-01-25T01:37:24;23.70;;;6.60;;
2646;SDS011;1333;50.958;6.770;2024-01-25T01:39:50;18.40;;;3.73;;
2646;SDS011;1333;50.958;6.770;2024-01-25T01:42:16;19.57;;;5.37;;
2646;SDS011;1333;50.958;6.770;2024-01-25T01:44:41;16.83;;;4.10;;
2646;SDS011;1333;50.958;6.770;2024-01-25T01:47:07;27.37;;;4.77;;
2646;SDS011;1333;50.958;6.770;2024-01-25T01:49:32;26.57;;;4.90;;
2646;SDS011;1333;50.958;6.770;2024-01-25T01:51:58;20.63;;;3.20;;
2646;SDS011;1333;50.958;6.770;2024-01-25T01:54:24;25.47;;;6.23;;
2646;SDS011;1333;50.958;6.770;2024-01-25T01:56:50;25.47;;;4.33;;
2646;SDS011;1333;50.958;6.770;2024-01-25T01:59:16;15.43;;;4.20;;
2646;SDS011;1333;50.958;6.770;2024-01-25T02:01:42;22.13;;;4.60;;
2646;SDS011;1333;50.958;6.770;2024-01-25T02:04:07;28.47;;;4.67;;
2646;SDS011;1333;50.958;6.770;2024-01-25T02:06:33;21.73;;;4.43;;
2646;SDS011;1333;50.958;6.770;2024-01-25T02:08:59;12.50;;;4.00;;
2646;SDS011;1333;50.958;6.770;2024-01-25T02:11:25;22.80;;;4.30;;
2646;SDS011;1333;50.958;6.770;2024-01-25T02:13:51;31.33;;;6.73;;
2646;SDS011;1333;50.958;6.770;2024-01-25T02:16:17;17.27;;;5.50;;
2646;SDS011;1333;50.958;6.770;2024-01-25T02:18:45;28.93;;;4.80;;
2646;SDS011;1333;50.958;6.770;2024-01-25T02:21:12;27.20;;;3.97;;
2646;SDS011;1333;50.958;6.770;2024-01-25T02:23:37;23.57;;;4.63;;
2646;SDS011;1333;50.958;6.770;2024-01-25T02:26:03;25.73;;;4.90;;
2646;SDS011;1333;50.958;6.770;2024-01-25T02:28:29;20.23;;;5.03;;
2646;SDS011;1333;50.958;6.770;2024-01-25T02:30:54;17.40;;;4.60;;
2646;SDS011;1333;50.958;6.770;2024-01-25T02:33:20;29.03;;;5.47;;
2646;SDS011;1333;50.958;6.770;2024-01-25T02:35:45;19.03;;;4.17;;
2646;SDS011;1333;50.958;6.770;2024-01-25T02:38:11;21.27;;;4.67;;
2646;SDS011;1333;50.958;6.770;2024-01-25T02:40:36;10.97;;;5.50;;
2646;SDS011;1333;50.958;6.770;2024-01-25T02:43:02;22.17;;;4.20;;
2646;SDS011;1333;50.958;6.770;2024-01-25T02:45:27;18.53;;;4.60;;
2646;SDS011;1333;50.958;6.770;2024-01-25T02:47:53;18.77;;;4.20;;
2646;SDS011;1333;50.958;6.770;2024-01-25T02:50:18;25.80;;;4.30;;
2646;SDS011;1333;50.958;6.770;2024-01-25T02:52:44;21.37;;;4.97;;
2646;SDS011;1333;50.958;6.770;2024-01-25T02:55:10;15.07;;;5.63;;
2646;SDS011;1333;50.958;6.770;2024-01-25T02:57:35;16.57;;;5.50;;
2646;SDS011;1333;50.958;6.770;2024-01-25T03:00:01;26.87;;;6.53;;
2646;SDS011;1333;50.958;6.770;2024-01-25T03:02:26;24.43;;;4.60;;
2646;SDS011;1333;50.958;6.770;2024-01-25T03:04:52;23.20;;;5.60;;
2646;SDS011;1333;50.958;6.770;2024-01-25T03:07:17;16.17;;;3.63;;
2646;SDS011;1333;50.958;6.770;2024-01-25T03:09:43;27.87;;;5.10;;
2646;SDS011;1333;50.958;6.770;2024-01-25T03:12:08;17.10;;;4.40;;
2646;SDS011;1333;50.958;6.770;2024-01-25T03:14:34;25.13;;;4.63;;
2646;SDS011;1333;50.958;6.770;2024-01-25T03:17:00;22.07;;;5.13;;
2646;SDS011;1333;50.958;6.770;2024-01-25T03:19:26;15.63;;;4.30;;
2646;SDS011;1333;50.958;6.770;2024-01-25T03:21:52;25.40;;;4.70;;
2646;SDS011;1333;50.958;6.770;2024-01-25T03:24:18;28.40;;;5.57;;
2646;SDS011;1333;50.958;6.770;2024-01-25T03:26:43;18.40;;;4.50;;
2646;SDS011;1333;50.958;6.770;2024-01-25T03:29:09;39.57;;;5.30;;
2646;SDS011;1333;50.958;6.770;2024-01-25T03:31:34;17.10;;;4.50;;
2646;SDS011;1333;50.958;6.770;2024-01-25T03:34:01;28.43;;;9.07;;
2646;SDS011;1333;50.958;6.770;2024-01-25T03:36:27;14.83;;;4.00;;
2646;SDS011;1333;50.958;6.770;2024-01-25T03:38:52;16.27;;;4.00;;
2646;SDS011;1333;50.958;6.770;2024-01-25T03:41:18;21.40;;;5.57;;
2646;SDS011;1333;50.958;6.770;2024-01-25T03:43:43;37.60;;;6.60;;
2646;SDS011;1333;50.958;6.770;2024-01-25T03:46:10;22.83;;;5.00;;
2646;SDS011;1333;50.958;6.770;2024-01-25T03:48:36;23.40;;;5.00;;
2646;SDS011;1333;50.958;6.770;2024-01-25T03:51:02;22.33;;;5.53;;
2646;SDS011;1333;50.958;6.770;2024-01-25T03:53:27;25.10;;;5.37;;
2646;SDS011;1333;50.958;6.770;2024-01-25T03:55:53;27.67;;;4.60;;
2646;SDS011;1333;50.958;6.770;2024-01-25T03:58:18;21.23;;;4.00;;
2646;SDS011;1333;50.958;6.770;2024-01-25T04:00:44;24.20;;;5.47;;
2646;SDS011;1333;50.958;6.770;2024-01-25T04:03:10;31.37;;;7.00;;
2646;SDS011;1333;50.958;6.770;2024-01-25T04:05:36;26.90;;;9.37;;
2646;SDS011;1333;50.958;6.770;2024-01-25T04:08:02;24.27;;;8.30;;
2646;SDS011;1333;50.958;6.770;2024-01-25T04:10:28;24.33;;;6.47;;
2646;SDS011;1333;50.958;6.770;2024-01-25T04:12:53;21.93;;;6.67;;
2646;SDS011;1333;50.958;6.770;2024-01-25T04:15:19;15.17;;;4.93;;
2646;SDS011;1333;50.958;6.770;2024-01-25T04:17:44;21.70;;;6.53;;
2646;SDS011;1333;50.958;6.770;2024-01-25T04:20:10;20.03;;;4.97;;
2646;SDS011;1333;50.958;6.770;2024-01-25T04:22:36;11.90;;;5.17;;
2646;SDS011;1333;50.958;6.770;2024-01-25T04:25:02;22.17;;;5.27;;
2646;SDS011;1333;50.958;6.770;2024-01-25T04:27:28;16.77;;;5.27;;
2646;SDS011;1333;50.958;6.770;2024-01-25T04:29:53;22.83;;;6.33;;
2646;SDS011;1333;50.958;6.770;2024-01-25T04:32:19;16.07;;;4.67;;
2646;SDS011;1333;50.958;6.770;2024-01-25T04:34:44;11.27;;;4.20;;
2646;SDS011;1333;50.958;6.770;2024-01-25T04:37:12;23.07;;;5.00;;
2646;SDS011;1333;50.958;6.770;2024-01-25T04:39:38;23.97;;;5.20;;
2646;SDS011;1333;50.958;6.770;2024-01-25T04:42:04;22.27;;;5.73;;
2646;SDS011;1333;50.958;6.770;2024-01-25T04:44:29;23.50;;;5.40;;
2646;SDS011;1333;50.958;6.770;2024-01-25T04:46:55;18.27;;;4.67;;
2646;SDS011;1333;50.958;6.770;2024-01-25T04:49:21;26.10;;;5.20;;
2646;SDS011;1333;50.958;6.770;2024-01-25T04:51:47;33.13;;;4.30;;
2646;SDS011;1333;50.958;6.770;2024-01-25T04:54:12;34.33;;;5.33;;
2646;SDS011;1333;50.958;6.770;2024-01-25T04:56:40;24.93;;;4.73;;
2646;SDS011;1333;50.958;6.770;2024-01-25T04:59:06;15.67;;;4.70;;
2646;SDS011;1333;50.958;6.770;2024-01-25T05:01:32;19.77;;;5.20;;
2646;SDS011;1333;50.958;6.770;2024-01-25T05:03:57;27.60;;;7.60;;
2646;SDS011;1333;50.958;6.770;2024-01-25T05:06:23;26.10;;;6.30;;
2646;SDS011;1333;50.958;6.770;2024-01-25T05:08:48;21.63;;;5.10;;
2646;SDS011;1333;50.958;6.770;2024-01-25T05:11:14;16.03;;;5.07;;
2646;SDS011;1333;50.958;6.770;2024-01-25T05:13:39;21.03;;;5.23;;
2646;SDS011;1333;50.958;6.770;2024-01-25T05:16:05;14.70;;;4.77;;
2646;SDS011;1333;50.958;6.770;2024-01-25T05:18:30;19.03;;;6.33;;
2646;SDS011;1333;50.958;6.770;2024-01-25T05:20:56;21.57;;;5.20;;
2646;SDS011;1333;50.958;6.770;2024-01-25T05:23:22;25.33;;;4.43;;
2646;SDS011;1333;50.958;6.770;2024-01-25T05:25:48;20.73;;;4.37;;
2646;SDS011;1333;50.958;6.770;2024-01-25T05:28:13;27.60;;;5.40;;
2646;SDS011;1333;50.958;6.770;2024-01-25T05:30:39;34.17;;;7.37;;
2646;SDS011;1333;50.958;6.770;2024-01-25T05:33:05;35.70;;;6.03;;
2646;SDS011;1333;50.958;6.770;2024-01-25T05:35:30;15.67;;;5.10;;
2646;SDS011;1333;50.958;6.770;2024-01-25T05:37:56;17.07;;;3.43;;
2646;SDS011;1333;50.958;6.770;2024-01-25T05:40:22;27.13;;;5.77;;
2646;SDS011;1333;50.958;6.770;2024-01-25T05:42:47;15.63;;;4.83;;
2646;SDS011;1333;50.958;6.770;2024-01-25T05:45:13;23.30;;;5.00;;
2646;SDS011;1333;50.958;6.770;2024-01-25T05:47:38;30.50;;;6.00;;
2646;SDS011;1333;50.958;6.770;2024-01-25T05:50:04;22.07;;;5.13;;
2646;SDS011;1333;50.958;6.770;2024-01-25T05:52:30;26.37;;;6.17;;
2646;SDS011;1333;50.958;6.770;2024-01-25T05:54:56;21.10;;;5.87;;
2646;SDS011;1333;50.958;6.770;2024-01-25T05:57:21;13.17;;;4.60;;
2646;SDS011;1333;50.958;6.770;2024-01-25T05:59:47;41.80;;;6.83;;
2646;SDS011;1333;50.958;6.770;2024-01-25T06:02:12;36.67;;;11.37;;
2646;SDS011;1333;50.958;6.770;2024-01-25T06:04:38;22.67;;;8.20;;
2646;SDS011;1333;50.958;6.770;2024-01-25T06:07:04;19.57;;;4.33;;
2646;SDS011;1333;50.958;6.770;2024-01-25T06:09:29;20.70;;;5.87;;
2646;SDS011;1333;50.958;6.770;2024-01-25T06:11:56;35.33;;;6.50;;
2646;SDS011;1333;50.958;6.770;2024-01-25T06:14:22;12.03;;;4.37;;
2646;SDS011;1333;50.958;6.770;2024-01-25T06:16:48;21.80;;;5.33;;
2646;SDS011;1333;50.958;6.770;2024-01-25T06:19:14;24.33;;;5.60;;
2646;SDS011;1333;50.958;6.770;2024-01-25T06:21:39;13.63;;;4.90;;
2646;SDS011;1333;50.958;6.770;2024-01-25T06:24:05;15.53;;;5.60;;
2646;SDS011;1333;50.958;6.770;2024-01-25T06:26:31;22.90;;;4.73;;
2646;SDS011;1333;50.958;6.770;2024-01-25T06:28:57;32.77;;;4.80;;
2646;SDS011;1333;50.958;6.770;2024-01-25T06:31:23;22.13;;;4.43;;
2646;SDS011;1333;50.958;6.770;2024-01-25T06:33:49;24.23;;;4.27;;
2646;SDS011;1333;50.958;6.770;2024-01-25T06:36:16;30.30;;;5.33;;
2646;SDS011;1333;50.958;6.770;2024-01-25T06:38:41;24.57;;;6.23;;
2646;SDS011;1333;50.958;6.770;2024-01-25T06:41:08;26.87;;;5.47;;
2646;SDS011;1333;50.958;6.770;2024-01-25T06:43:34;24.30;;;5.50;;
2646;SDS011;1333;50.958;6.770;2024-01-25T06:45:59;15.03;;;5.30;;
2646;SDS011;1333;50.958;6.770;2024-01-25T06:48:25;31.27;;;6.47;;
2646;SDS011;1333;50.958;6.770;2024-01-25T06:50:50;26.57;;;6.17;;
2646;SDS011;1333;50.958;6.770;2024-01-25T06:53:16;24.77;;;6.10;;
2646;SDS011;1333;50.958;6.770;2024-01-25T06:55:42;27.60;;;5.27;;
2646;SDS011;1333;50.958;6.770;2024-01-25T06:58:07;22.70;;;5.57;;
2646;SDS011;1333;50.958;6.770;2024-01-25T07:00:33;17.33;;;5.37;;
2646;SDS011;1333;50.958;6.770;2024-01-25T07:02:59;18.60;;;5.07;;
2646;SDS011;1333;50.958;6.770;2024-01-25T07:05:25;28.40;;;5.97;;
2646;SDS011;1333;50.958;6.770;2024-01-25T07:07:51;21.97;;;6.07;;
2646;SDS011;1333;50.958;6.770;2024-01-25T07:10:17;32.87;;;5.97;;
2646;SDS011;1333;50.958;6.770;2024-01-25T07:12:42;32.23;;;6.27;;
2646;SDS011;1333;50.958;6.770;2024-01-25T07:15:08;21.97;;;5.97;;
2646;SDS011;1333;50.958;6.770;2024-01-25T07:17:34;20.37;;;5.30;;
2646;SDS011;1333;50.958;6.770;2024-01-25T07:19:59;32.70;;;5.80;;
2646;SDS011;1333;50.958;6.770;2024-01-25T07:22:25;23.77;;;6.40;;
2646;SDS011;1333;50.958;6.770;2024-01-25T07:24:50;27.73;;;5.57;;
2646;SDS011;1333;50.958;6.770;2024-01-25T07:27:16;35.10;;;7.80;;
2646;SDS011;1333;50.958;6.770;2024-01-25T07:29:43;33.40;;;7.60;;
2646;SDS011;1333;50.958;6.770;2024-01-25T07:32:09;32.03;;;6.30;;
2646;SDS011;1333;50.958;6.770;2024-01-25T07:34:35;29.63;;;7.37;;
2646;SDS011;1333;50.958;6.770;2024-01-25T07:37:01;14.13;;;6.97;;
2646;SDS011;1333;50.958;6.770;2024-01-25T07:39:28;33.23;;;6.60;;
2646;SDS011;1333;50.958;6.770;2024-01-25T07:41:53;17.50;;;6.57;;
2646;SDS011;1333;50.958;6.770;2024-01-25T07:44:19;37.93;;;8.20;;
2646;SDS011;1333;50.958;6.770;2024-01-25T07:46:44;46.20;;;8.80;;
2646;SDS011;1333;50.958;6.770;2024-01-25T07:49:10;41.57;;;8.17;;
2646;SDS011;1333;50.958;6.770;2024-01-25T07:51:35;23.83;;;7.13;;
2646;SDS011;1333;50.958;6.770;2024-01-25T07:54:01;22.50;;;6.77;;
2646;SDS011;1333;50.958;6.770;2024-01-25T07:56:27;42.67;;;9.00;;
2646;SDS011;1333;50.958;6.770;2024-01-25T07:58:53;24.70;;;7.17;;
2646;SDS011;1333;50.958;6.770;2024-01-25T08:01:18;36.63;;;8.53;;
2646;SDS011;1333;50.958;6.770;2024-01-25T08:03:44;28.40;;;7.43;;
2646;SDS011;1333;50.958;6.770;2024-01-25T08:06:10;36.23;;;7.87;;
2646;SDS011;1333;50.958;6.770;2024-01-25T08:08:36;40.17;;;7.53;;
2646;SDS011;1333;50.958;6.770;2024-01-25T08:11:02;20.53;;;8.97;;
2646;SDS011;1333;50.958;6.770;2024-01-25T08:13:29;27.27;;;6.53;;
2646;SDS011;1333;50.958;6.770;2024-01-25T08:15:55;30.67;;;7.77;;
2646;SDS011;1333;50.958;6.770;2024-01-25T08:18:21;26.97;;;9.93;;
2646;SDS011;1333;50.958;6.770;2024-01-25T08:20:48;27.07;;;7.90;;
2646;SDS011;1333;50.958;6.770;2024-01-25T08:23:14;29.50;;;8.73;;
2646;SDS011;1333;50.958;6.770;2024-01-25T08:25:39;34.97;;;8.97;;
2646;SDS011;1333;50.958;6.770;2024-01-25T08:28:05;37.37;;;10.17;;
2646;SDS011;1333;50.958;6.770;2024-01-25T08:30:31;29.67;;;9.77;;
2646;SDS011;1333;50.958;6.770;2024-01-25T08:32:57;31.93;;;8.07;;
2646;SDS011;1333;50.958;6.770;2024-01-25T08:35:22;28.57;;;7.60;;
2646;SDS011;1333;50.958;6.770;2024-01-25T08:37:49;16.80;;;7.67;;
2646;SDS011;1333;50.958;6.770;2024-01-25T08:40:14;22.90;;;6.50;;
2646;SDS011;1333;50.958;6.770;2024-01-25T08:42:40;30.63;;;7.37;;
2646;SDS011;1333;50.958;6.770;2024-01-25T08:45:06;17.43;;;7.20;;
2646;SDS011;1333;50.958;6.770;2024-01-25T08:47:34;25.87;;;7.33;;
2646;SDS011;1333;50.958;6.770;2024-01-25T08:50:00;17.23;;;7.20;;
2646;SDS011;1333;50.958;6.770;2024-01-25T08:52:25;22.43;;;6.47;;
2646;SDS011;1333;50.958;6.770;2024-01-25T08:54:51;21.47;;;7.77;;
2646;SDS011;1333;50.958;6.770;2024-01-25T08:57:16;20.97;;;9.13;;
2646;SDS011;1333;50.958;6.770;2024-01-25T08:59:42;14.20;;;7.60;;
2646;SDS011;1333;50.958;6.770;2024-01-25T09:02:08;25.23;;;7.63;;
2646;SDS011;1333;50.958;6.770;2024-01-25T09:04:33;20.53;;;6.53;;
2646;SDS011;1333;50.958;6.770;2024-01-25T09:06:59;33.83;;;7.93;;
2646;SDS011;1333;50.958;6.770;2024-01-25T09:09:25;26.90;;;8.30;;
2646;SDS011;1333;50.958;6.770;2024-01-25T09:11:50;23.97;;;10.17;;
2646;SDS011;1333;50.958;6.770;2024-01-25T09:14:16;20.83;;;7.53;;
2646;SDS011;1333;50.958;6.770;2024-01-25T09:16:41;13.03;;;7.07;;
2646;SDS011;1333;50.958;6.770;2024-01-25T09:19:07;26.40;;;8.37;;
2646;SDS011;1333;50.958;6.770;2024-01-25T09:21:33;17.97;;;7.07;;
2646;SDS011;1333;50.958;6.770;2024-01-25T09:23:58;24.87;;;7.43;;
2646;SDS011;1333;50.958;6.770;2024-01-25T09:26:24;20.17;;;7.50;;
2646;SDS011;1333;50.958;6.770;2024-01-25T09:28:50;21.70;;;7.63;;
2646;SDS011;1333;50.958;6.770;2024-01-25T09:31:15;18.13;;;7.37;;
2646;SDS011;1333;50.958;6.770;2024-01-25T09:33:41;17.03;;;7.13;;
2646;SDS011;1333;50.958;6.770;2024-01-25T09:36:06;21.23;;;8.10;;
2646;SDS011;1333;50.958;6.770;2024-01-25T09:38:32;14.70;;;6.67;;
2646;SDS011;1333;50.958;6.770;2024-01-25T09:40:58;19.93;;;8.00;;
2646;SDS011;1333;50.958;6.770;2024-01-25T09:43:24;17.47;;;7.60;;
2646;SDS011;1333;50.958;6.770;2024-01-25T09:45:52;20.40;;;7.17;;
2646;SDS011;1333;50.958;6.770;2024-01-25T09:48:21;19.73;;;7.30;;
2646;SDS011;1333;50.958;6.770;2024-01-25T09:50:47;21.90;;;8.77;;
2646;SDS011;1333;50.958;6.770;2024-01-25T09:53:16;24.83;;;8.10;;
2646;SDS011;1333;50.958;6.770;2024-01-25T09:55:47;19.70;;;7.43;;
2646;SDS011;1333;50.958;6.770;2024-01-25T09:58:30;17.20;;;7.63;;
2646;SDS011;1333;50.958;6.770;2024-01-25T10:01:01;27.20;;;8.60;;
2646;SDS011;1333;50.958;6.770;2024-01-25T10:03:27;20.00;;;7.17;;
2646;SDS011;1333;50.958;6.770;2024-01-25T10:05:52;22.60;;;8.83;;
2646;SDS011;1333;50.958;6.770;2024-01-25T10:08:18;17.50;;;6.70;;
2646;SDS011;1333;50.958;6.770;2024-01-25T10:10:46;18.40;;;6.80;;
2646;SDS011;1333;50.958;6.770;2024-01-25T10:13:12;17.30;;;6.73;;
2646;SDS011;1333;50.958;6.770;2024-01-25T10:15:38;28.27;;;8.33;;
2646;SDS011;1333;50.958;6.770;2024-01-25T10:18:06;24.47;;;7.40;;
2646;SDS011;1333;50.958;6.770;2024-01-25T10:20:37;15.20;;;7.60;;
2646;SDS011;1333;50.958;6.770;2024-01-25T10:23:09;22.43;;;9.03;;
2646;SDS011;1333;50.958;6.770;2024-01-25T10:25:35;17.23;;;6.53;;
2646;SDS011;1333;50.958;6.770;2024-01-25T10:28:03;16.80;;;7.43;;
2646;SDS011;1333;50.958;6.770;2024-01-25T10:30:33;20.07;;;7.80;;
2646;SDS011;1333;50.958;6.770;2024-01-25T10:32:59;23.17;;;8.63;;
2646;SDS011;1333;50.958;6.770;2024-01-25T10:35:25;14.80;;;7.37;;
2646;SDS011;1333;50.958;6.770;2024-01-25T10:37:52;21.43;;;8.10;;
2646;SDS011;1333;50.958;6.770;2024-01-25T10:40:19;17.20;;;6.80;;
2646;SDS011;1333;50.958;6.770;2024-01-25T10:42:45;25.80;;;7.57;;
2646;SDS011;1333;50.958;6.770;2024-01-25T10:45:11;19.90;;;7.53;;
2646;SDS011;1333;50.958;6.770;2024-01-25T10:47:37;19.37;;;8.60;;
2646;SDS011;1333;50.958;6.770;2024-01-25T10:50:06;15.57;;;6.77;;
2646;SDS011;1333;50.958;6.770;2024-01-25T10:52:34;26.60;;;7.63;;
2646;SDS011;1333;50.958;6.770;2024-01-25T10:55:00;19.17;;;7.80;;
2646;SDS011;1333;50.958;6.770;2024-01-25T10:57:34;21.33;;;7.30;;
2646;SDS011;1333;50.958;6.770;2024-01-25T11:00:08;25.10;;;10.10;;
2646;SDS011;1333;50.958;6.770;2024-01-25T11:02:35;35.97;;;8.77;;
2646;SDS011;1333;50.958;6.770;2024-01-25T11:05:01;22.70;;;7.50;;
2646;SDS011;1333;50.958;6.770;2024-01-25T11:07:32;22.37;;;6.80;;
2646;SDS011;1333;50.958;6.770;2024-01-25T11:10:27;19.00;;;8.57;;
2646;SDS011;1333;50.958;6.770;2024-01-25T11:12:58;19.27;;;7.13;;
2646;SDS011;1333;50.958;6.770;2024-01-25T11:15:34;17.77;;;6.67;;
2646;SDS011;1333;50.958;6.770;2024-01-25T11:18:04;23.33;;;10.47;;
2646;SDS011;1333;50.958;6.770;2024-01-25T11:20:33;15.53;;;7.33;;
2646;SDS011;1333;50.958;6.770;2024-01-25T11:23:01;16.07;;;8.17;;
2646;SDS011;1333;50.958;6.770;2024-01-25T11:25:30;20.23;;;8.07;;
2646;SDS011;1333;50.958;6.770;2024-01-25T11:27:58;20.00;;;7.30;;
2646;SDS011;1333;50.958;6.770;2024-01-25T11:30:25;17.53;;;8.80;;
2646;SDS011;1333;50.958;6.770;2024-01-25T11:32:51;19.70;;;7.60;;
2646;SDS011;1333;50.958;6.770;2024-01-25T11:35:17;18.10;;;7.43;;
2646;SDS011;1333;50.958;6.770;2024-01-25T11:37:43;26.10;;;8.50;;
2646;SDS011;1333;50.958;6.770;2024-01-25T11:40:10;18.03;;;7.10;;
2646;SDS011;1333;50.958;6.770;2024-01-25T11:42:37;18.87;;;6.70;;
2646;SDS011;1333;50.958;6.770;2024-01-25T11:45:04;20.43;;;7.03;;
2646;SDS011;1333;50.958;6.770;2024-01-25T11:47:32;15.90;;;7.33;;
2646;SDS011;1333;50.958;6.770;2024-01-25T11:49:58;22.67;;;9.33;;
2646;SDS011;1333;50.958;6.770;2024-01-25T11:52:23;21.10;;;6.97;;
2646;SDS011;1333;50.958;6.770;2024-01-25T11:54:51;15.23;;;7.37;;
2646;SDS011;1333;50.958;6.770;2024-01-25T11:57:16;25.20;;;6.40;;
2646;SDS011;1333;50.958;6.770;2024-01-25T11:59:43;19.93;;;6.87;;
2646;SDS011;1333;50.958;6.770;2024-01-25T12:02:10;13.73;;;5.20;;
2646;SDS011;1333;50.958;6.770;2024-01-25T12:04:39;13.13;;;7.00;;
2646;SDS011;1333;50.958;6.770;2024-01-25T12:07:05;14.13;;;6.43;;
2646;SDS011;1333;50.958;6.770;2024-01-25T12:09:30;16.00;;;6.17;;
2646;SDS011;1333;50.958;6.770;2024-01-25T12:11:56;8.67;;;4.73;;
2646;SDS011;1333;50.958;6.770;2024-01-25T12:14:23;14.67;;;5.17;;
2646;SDS011;1333;50.958;6.770;2024-01-25T12:16:49;15.47;;;5.40;;
2646;SDS011;1333;50.958;6.770;2024-01-25T12:19:15;18.00;;;6.23;;
2646;SDS011;1333;50.958;6.770;2024-01-25T12:21:43;12.67;;;6.10;;
2646;SDS011;1333;50.958;6.770;2024-01-25T12:24:09;19.37;;;5.47;;
2646;SDS011;1333;50.958;6.770;2024-01-25T12:26:35;13.07;;;5.40;;
2646;SDS011;1333;50.958;6.770;2024-01-25T12:29:02;13.90;;;6.27;;
2646;SDS011;1333;50.958;6.770;2024-01-25T12:31:28;15.37;;;5.70;;
2646;SDS011;1333;50.958;6.770;2024-01-25T12:33:53;17.37;;;5.97;;
2646;SDS011;1333;50.958;6.770;2024-01-25T12:36:19;9.30;;;4.97;;
2646;SDS011;1333;50.958;6.770;2024-01-25T12:38:44;16.77;;;5.30;;
2646;SDS011;1333;50.958;6.770;2024-01-25T12:41:10;13.63;;;3.87;;
2646;SDS011;1333;50.958;6.770;2024-01-25T12:43:35;17.60;;;4.80;;
2646;SDS011;1333;50.958;6.770;2024-01-25T12:46:01;13.80;;;5.30;;
2646;SDS011;1333;50.958;6.770;2024-01-25T12:48:27;15.10;;;7.33;;
2646;SDS011;1333;50.958;6.770;2024-01-25T12:50:52;14.80;;;5.37;;
2646;SDS011;1333;50.958;6.770;2024-01-25T12:53:18;12.70;;;5.80;;
2646;SDS011;1333;50.958;6.770;2024-01-25T12:55:43;13.93;;;4.90;;
2646;SDS011;1333;50.958;6.770;2024-01-25T12:58:09;19.70;;;6.27;;
2646;SDS011;1333;50.958;6.770;2024-01-25T13:00:35;15.87;;;5.70;;
2646;SDS011;1333;50.958;6.770;2024-01-25T13:03:00;17.93;;;6.30;;
2646;SDS011;1333;50.958;6.770;2024-01-25T13:05:26;10.50;;;5.30;;
2646;SDS011;1333;50.958;6.770;2024-01-25T13:07:52;20.37;;;5.90;;
2646;SDS011;1333;50.958;6.770;2024-01-25T13:10:18;12.43;;;4.70;;
2646;SDS011;1333;50.958;6.770;2024-01-25T13:12:43;14.77;;;4.30;;
2646;SDS011;1333;50.958;6.770;2024-01-25T13:15:09;16.10;;;4.70;;
2646;SDS011;1333;50.958;6.770;2024-01-25T13:17:35;19.87;;;5.37;;
2646;SDS011;1333;50.958;6.770;2024-01-25T13:20:01;11.27;;;4.90;;
2646;SDS011;1333;50.958;6.770;2024-01-25T13:22:27;17.57;;;4.57;;
2646;SDS011;1333;50.958;6.770;2024-01-25T13:24:54;17.67;;;5.40;;
2646;SDS011;1333;50.958;6.770;2024-01-25T13:27:20;15.80;;;3.80;;
2646;SDS011;1333;50.958;6.770;2024-01-25T13:29:46;12.43;;;3.90;;
2646;SDS011;1333;50.958;6.770;2024-01-25T13:32:11;14.40;;;3.80;;
2646;SDS011;1333;50.958;6.770;2024-01-25T13:34:37;22.13;;;6.63;;
2646;SDS011;1333;50.958;6.770;2024-01-25T13:37:02;17.37;;;5.37;;
2646;SDS011;1333;50.958;6.770;2024-01-25T13:39:28;15.87;;;4.50;;
2646;SDS011;1333;50.958;6.770;2024-01-25T13:41:54;10.23;;;3.87;;
2646;SDS011;1333;50.958;6.770;2024-01-25T13:44:19;13.60;;;3.87;;
2646;SDS011;1333;50.958;6.770;2024-01-25T13:46:45;14.43;;;4.57;;
2646;SDS011;1333;50.958;6.770;2024-01-25T13:49:10;11.90;;;4.90;;
2646;SDS011;1333;50.958;6.770;2024-01-25T13:51:36;13.30;;;4.57;;
2646;SDS011;1333;50.958;6.770;2024-01-25T13:54:01;15.60;;;4.17;;
2646;SDS011;1333;50.958;6.770;2024-01-25T13:56:27;11.47;;;4.70;;
2646;SDS011;1333;50.958;6.770;2024-01-25T13:58:52;14.50;;;4.20;;
2646;SDS011;1333;50.958;6.770;2024-01-25T14:01:19;14.63;;;4.57;;
2646;SDS011;1333;50.958;6.770;2024-01-25T14:03:45;11.40;;;3.40;;
2646;SDS011;1333;50.958;6.770;2024-01-25T14:06:10;9.23;;;3.63;;
2646;SDS011;1333;50.958;6.770;2024-01-25T14:08:36;14.13;;;4.57;;
2646;SDS011;1333;50.958;6.770;2024-01-25T14:11:02;7.23;;;4.23;;
2646;SDS011;1333;50.958;6.770;2024-01-25T14:13:28;9.73;;;3.70;;
2646;SDS011;1333;50.958;6.770;2024-01-25T14:15:53;10.30;;;4.00;;
2646;SDS011;1333;50.958;6.770;2024-01-25T14:18:20;13.77;;;4.27;;
2646;SDS011;1333;50.958;6.770;2024-01-25T14:20:45;11.13;;;3.60;;
2646;SDS011;1333;50.958;6.770;2024-01-25T14:23:11;7.83;;;3.00;;
2646;SDS011;1333;50.958;6.770;2024-01-25T14:25:36;10.40;;;3.63;;
2646;SDS011;1333;50.958;6.770;2024-01-25T14:28:02;9.07;;;4.50;;
2646;SDS011;1333;50.958;6.770;2024-01-25T14:30:28;14.40;;;3.90;;
2646;SDS011;1333;50.958;6.770;2024-01-25T14:32:54;12.40;;;3.37;;
2646;SDS011;1333;50.958;6.770;2024-01-25T14:35:21;11.10;;;3.90;;
2646;SDS011;1333;50.958;6.770;2024-01-25T14:37:53;11.13;;;4.23;;
2646;SDS011;1333;50.958;6.770;2024-01-25T14:40:21;7.20;;;3.03;;
2646;SDS011;1333;50.958;6.770;2024-01-25T14:42:47;11.13;;;3.47;;
2646;SDS011;1333;50.958;6.770;2024-01-25T14:45:13;7.07;;;3.20;;
2646;SDS011;1333;50.958;6.770;2024-01-25T14:47:38;12.13;;;3.10;;
2646;SDS011;1333;50.958;6.770;2024-01-25T14:50:04;11.77;;;3.77;;
2646;SDS011;1333;50.958;6.770;2024-01-25T14:52:31;15.73;;;4.40;;
2646;SDS011;1333;50.958;6.770;2024-01-25T14:54:59;13.40;;;4.07;;